Time;durP1;ratioP1;P1;durP2;ratioP2;P2;SDS_P1;SDS_P2;PMS_P1;PMS_P2;Temp;Humidity;BMP_temperature;BMP_pressure;BME280_temperature;BME280_humidity;BME280_pressure;Samples;Min_cycle;Max_cycle;Signal;HPM_P1;HPM_P2
2022/04/13 00:01:18;;;;;;;5.20;3.80;;;12.40;99.90;;;;;;5138670;27;20650;-82
2022/04/13 00:03:46;;;;;;;3.53;3.20;;;12.40;99.90;;;;;;5145867;27;20976;-83
2022/04/13 00:06:15;;;;;;;4.30;3.90;;;12.20;99.90;;;;;;5145121;27;20635;-82
2022/04/13 00:08:44;;;;;;;4.20;3.90;;;12.40;99.90;;;;;;5143812;27;21022;-82
2022/04/13 00:11:10;;;;;;;4.33;3.93;;;11.90;99.90;;;;;;5144887;27;20669;-82
2022/04/13 00:13:37;;;;;;;4.10;3.70;;;12.10;99.90;;;;;;5141538;27;21265;-84
2022/04/13 00:16:04;;;;;;;3.90;3.50;;;12.20;99.90;;;;;;5140497;27;21112;-83
2022/04/13 00:18:31;;;;;;;3.57;3.27;;;12.20;99.90;;;;;;5139907;27;20622;-85
2022/04/13 00:20:58;;;;;;;7.60;4.13;;;12.20;99.90;;;;;;5143072;27;20650;-82
2022/04/13 00:23:24;;;;;;;4.07;3.70;;;12.20;99.90;;;;;;5141635;27;20984;-83
2022/04/13 00:25:52;;;;;;;4.13;3.53;;;12.20;99.90;;;;;;5141437;27;20621;-84
2022/04/13 00:28:19;;;;;;;4.30;3.90;;;12.20;99.90;;;;;;5144716;27;20629;-84
2022/04/13 00:30:46;;;;;;;3.53;3.20;;;12.10;99.90;;;;;;5142155;27;20681;-84
2022/04/13 00:33:12;;;;;;;3.60;3.30;;;12.10;99.90;;;;;;5143663;27;20625;-84
2022/04/13 00:35:39;;;;;;;3.40;3.10;;;12.10;99.90;;;;;;5138119;27;20626;-82
2022/04/13 00:38:06;;;;;;;5.30;3.60;;;12.10;99.90;;;;;;5140121;27;20626;-84
2022/04/13 00:40:33;;;;;;;2.83;2.53;;;12.10;99.90;;;;;;5148754;27;20641;-84
2022/04/13 00:43:01;;;;;;;3.57;3.27;;;12.10;99.90;;;;;;5142090;27;20621;-84
2022/04/13 00:45:28;;;;;;;5.93;3.10;;;12.10;99.90;;;;;;5143057;27;20618;-84
2022/04/13 00:47:55;;;;;;;3.10;2.90;;;12.20;99.90;;;;;;5139579;27;20626;-84
2022/04/13 00:50:23;;;;;;;2.97;2.70;;;12.10;99.90;;;;;;5140691;27;20682;-84
2022/04/13 00:52:52;;;;;;;3.80;3.50;;;12.00;99.90;;;;;;5138786;27;21170;-82
2022/04/13 00:55:20;;;;;;;2.90;2.70;;;11.80;99.90;;;;;;5142991;27;20633;-84
2022/04/13 00:57:48;;;;;;;5.93;3.90;;;12.00;99.90;;;;;;5143961;27;20628;-84
2022/04/13 01:00:17;;;;;;;3.30;3.00;;;11.90;99.90;;;;;;5143846;27;20722;-83
2022/04/13 01:02:44;;;;;;;3.50;3.00;;;11.90;99.90;;;;;;5140874;27;20637;-84
2022/04/13 01:05:12;;;;;;;5.70;3.30;;;11.50;99.90;;;;;;5136946;27;20628;-84
2022/04/13 01:07:40;;;;;;;3.40;3.00;;;11.80;99.90;;;;;;5139900;27;20621;-84
2022/04/13 01:10:08;;;;;;;3.80;3.50;;;11.60;99.90;;;;;;5140727;27;21012;-84
2022/04/13 01:12:35;;;;;;;2.93;2.63;;;11.80;99.90;;;;;;5142618;27;20986;-83
2022/04/13 01:15:02;;;;;;;4.30;3.33;;;11.70;99.90;;;;;;5143021;27;21158;-83
2022/04/13 01:17:30;;;;;;;4.67;4.20;;;11.80;99.90;;;;;;5137826;27;20614;-83
2022/04/13 01:19:58;;;;;;;6.53;3.80;;;11.70;99.90;;;;;;5139231;27;20653;-84
2022/04/13 01:22:26;;;;;;;3.10;2.90;;;11.40;99.90;;;;;;5138719;27;20684;-84
2022/04/13 01:24:53;;;;;;;6.40;3.40;;;11.40;99.90;;;;;;5141404;27;20626;-83
2022/04/13 01:27:20;;;;;;;3.87;3.50;;;11.60;99.90;;;;;;5141034;27;20649;-83
2022/04/13 01:29:52;;;;;;;3.80;3.40;;;11.60;99.90;;;;;;5138655;27;21236;-84
2022/04/13 01:32:19;;;;;;;3.93;3.57;;;11.30;99.90;;;;;;5142521;27;21309;-83
2022/04/13 01:34:49;;;;;;;4.13;3.77;;;11.30;99.90;;;;;;5133466;27;20736;-83
2022/04/13 01:37:16;;;;;;;3.30;3.00;;;11.40;99.90;;;;;;5142469;27;20629;-83
2022/04/13 01:39:45;;;;;;;5.90;3.20;;;11.40;99.90;;;;;;5138230;27;21227;-84
2022/04/13 01:42:12;;;;;;;3.23;2.93;;;11.30;99.90;;;;;;5143372;27;20633;-83
2022/04/13 01:44:41;;;;;;;4.27;3.17;;;11.30;99.90;;;;;;5137591;27;20630;-83
2022/04/13 01:47:08;;;;;;;3.80;3.50;;;11.30;99.90;;;;;;5142316;27;20633;-83
2022/04/13 01:49:35;;;;;;;5.00;4.13;;;11.20;99.90;;;;;;5137775;27;21219;-83
2022/04/13 01:52:01;;;;;;;11.27;4.63;;;11.10;99.90;;;;;;5143162;27;20670;-83
2022/04/13 01:54:28;;;;;;;4.50;3.40;;;11.20;99.90;;;;;;5140280;27;20648;-83
2022/04/13 01:56:56;;;;;;;6.00;3.67;;;11.10;99.90;;;;;;5146170;27;20625;-82
2022/04/13 01:59:23;;;;;;;3.80;3.50;;;10.70;99.90;;;;;;5142948;27;20671;-82
2022/04/13 02:01:50;;;;;;;5.53;2.90;;;11.10;99.90;;;;;;5143579;27;20625;-82
2022/04/13 02:04:18;;;;;;;4.33;3.70;;;10.70;99.90;;;;;;5136454;27;20617;-82
2022/04/13 02:06:45;;;;;;;3.90;3.20;;;10.90;99.90;;;;;;5141653;27;20633;-83
2022/04/13 02:09:12;;;;;;;4.13;3.07;;;10.70;99.90;;;;;;5137339;27;20630;-82
2022/04/13 02:11:38;;;;;;;4.27;3.97;;;10.90;99.90;;;;;;5142925;27;21290;-83
2022/04/13 02:14:07;;;;;;;5.00;3.87;;;10.60;99.90;;;;;;5138822;27;21340;-83
2022/04/13 02:16:34;;;;;;;3.83;3.53;;;10.90;99.90;;;;;;5141481;27;20685;-83
2022/04/13 02:19:01;;;;;;;4.20;3.80;;;10.80;99.90;;;;;;5138819;27;20628;-83
2022/04/13 02:21:28;;;;;;;4.10;3.50;;;10.50;99.90;;;;;;5135706;27;20648;-83
2022/04/13 02:23:54;;;;;;;5.33;4.87;;;10.80;99.90;;;;;;5139856;27;21191;-84
2022/04/13 02:26:22;;;;;;;4.93;4.40;;;10.50;99.90;;;;;;5140132;27;20676;-83
2022/04/13 02:28:49;;;;;;;5.13;4.67;;;10.60;99.90;;;;;;5139828;27;20682;-83
2022/04/13 02:31:17;;;;;;;5.67;4.03;;;10.40;99.90;;;;;;5145811;27;20839;-83
2022/04/13 02:33:44;;;;;;;4.23;3.80;;;10.40;99.90;;;;;;5140795;27;21225;-83
2022/04/13 02:36:11;;;;;;;3.90;3.47;;;10.40;99.90;;;;;;5139830;27;20625;-83
2022/04/13 02:38:38;;;;;;;3.73;3.40;;;10.60;99.90;;;;;;5132412;27;20646;-83
2022/04/13 02:41:05;;;;;;;3.70;3.40;;;10.60;99.90;;;;;;5143228;27;20656;-83
2022/04/13 02:43:32;;;;;;;4.30;3.10;;;10.20;99.90;;;;;;5137966;27;20631;-83
2022/04/13 02:45:58;;;;;;;3.63;3.20;;;10.50;99.90;;;;;;5142336;27;20701;-83
2022/04/13 02:48:27;;;;;;;4.90;3.87;;;10.30;99.90;;;;;;5138685;27;20640;-83
2022/04/13 02:50:53;;;;;;;3.40;3.10;;;10.10;99.90;;;;;;5137201;27;20670;-83
2022/04/13 02:53:20;;;;;;;3.50;3.20;;;10.40;99.90;;;;;;5140519;27;20628;-83
2022/04/13 02:55:48;;;;;;;3.30;3.10;;;10.30;99.90;;;;;;5145237;27;20716;-82
2022/04/13 02:58:14;;;;;;;3.93;3.13;;;10.10;99.90;;;;;;5143962;27;20976;-82
2022/04/13 03:00:42;;;;;;;4.80;3.63;;;10.00;99.90;;;;;;5149895;27;20653;-82
2022/04/13 03:03:09;;;;;;;4.00;3.60;;;10.30;99.90;;;;;;5146000;27;20609;-82
2022/04/13 03:05:38;;;;;;;4.87;4.47;;;10.00;99.90;;;;;;5144299;27;20627;-82
2022/04/13 03:08:05;;;;;;;5.20;4.70;;;9.80;99.90;;;;;;5146289;27;20744;-82
2022/04/13 03:10:31;;;;;;;5.30;4.90;;;10.40;99.90;;;;;;5144642;27;20677;-83
2022/04/13 03:12:58;;;;;;;5.00;4.60;;;9.90;99.90;;;;;;5152696;27;20665;-83
2022/04/13 03:15:26;;;;;;;6.50;4.47;;;10.50;99.90;;;;;;5147718;27;21226;-83
2022/04/13 03:17:53;;;;;;;5.47;4.77;;;10.30;99.90;;;;;;5140789;27;20621;-84
2022/04/13 03:20:20;;;;;;;5.00;4.27;;;9.90;99.90;;;;;;5144011;27;20645;-83
2022/04/13 03:22:50;;;;;;;4.33;3.73;;;9.80;99.90;;;;;;5148033;27;20617;-83
2022/04/13 03:25:17;;;;;;;4.30;3.90;;;9.80;99.90;;;;;;5147738;27;20657;-83
2022/04/13 03:27:44;;;;;;;4.40;4.00;;;10.00;99.90;;;;;;5143772;27;20768;-83
2022/04/13 03:30:13;;;;;;;4.70;4.30;;;10.30;99.90;;;;;;5146408;27;20663;-83
2022/04/13 03:32:40;;;;;;;4.37;3.97;;;10.20;99.90;;;;;;5147311;27;20661;-83
2022/04/13 03:35:10;;;;;;;4.20;3.80;;;10.00;99.90;;;;;;5142996;27;20629;-83
2022/04/13 03:37:37;;;;;;;4.90;3.97;;;9.80;99.90;;;;;;5145007;27;20633;-83
2022/04/13 03:40:07;;;;;;;4.27;4.07;;;9.90;99.90;;;;;;5149880;27;20648;-83
2022/04/13 03:42:34;;;;;;;4.53;4.23;;;10.00;99.90;;;;;;5145131;27;20613;-83
2022/04/13 03:45:03;;;;;;;4.57;4.27;;;9.60;99.90;;;;;;5144660;27;20630;-83
2022/04/13 03:47:30;;;;;;;3.70;3.40;;;9.70;99.90;;;;;;5139688;27;20712;-83
2022/04/13 03:49:57;;;;;;;5.50;5.00;;;9.80;99.90;;;;;;5141503;27;20650;-84
2022/04/13 03:52:23;;;;;;;5.13;4.50;;;9.30;99.90;;;;;;5143203;27;21032;-83
2022/04/13 03:54:50;;;;;;;4.47;4.10;;;9.60;99.90;;;;;;5145134;27;20621;-84
2022/04/13 03:57:18;;;;;;;4.93;4.53;;;9.40;99.90;;;;;;5145461;27;20633;-83
2022/04/13 03:59:45;;;;;;;5.30;4.90;;;9.60;99.90;;;;;;5142177;27;20657;-82
2022/04/13 04:02:14;;;;;;;5.80;4.57;;;9.40;99.90;;;;;;5147327;27;20632;-82
2022/04/13 04:04:40;;;;;;;4.67;4.07;;;9.60;99.90;;;;;;5144483;27;20810;-82
2022/04/13 04:07:07;;;;;;;4.93;4.53;;;9.60;99.90;;;;;;5145571;27;20625;-82
2022/04/13 04:09:34;;;;;;;5.00;4.00;;;9.70;99.90;;;;;;5142292;27;20741;-82
2022/04/13 04:12:01;;;;;;;5.00;4.60;;;9.30;99.90;;;;;;5143474;27;20658;-82
2022/04/13 04:14:29;;;;;;;6.10;4.30;;;9.60;99.90;;;;;;5143278;27;20683;-82
2022/04/13 04:16:55;;;;;;;4.80;4.20;;;9.50;99.90;;;;;;5145824;27;20632;-82
2022/04/13 04:19:22;;;;;;;4.40;4.10;;;9.30;99.90;;;;;;5145187;27;21155;-83
2022/04/13 04:21:49;;;;;;;6.23;5.43;;;9.20;99.90;;;;;;5143279;27;21085;-82
2022/04/13 04:24:16;;;;;;;4.43;4.03;;;9.40;99.90;;;;;;5147412;27;20633;-82
2022/04/13 04:26:43;;;;;;;6.03;4.87;;;9.60;99.90;;;;;;5142711;27;20980;-82
2022/04/13 04:29:10;;;;;;;4.87;4.57;;;9.60;99.90;;;;;;5147468;27;20705;-83
2022/04/13 04:31:51;;;;;;;6.00;5.50;;;9.20;99.90;;;;;;5144854;27;20681;-83
2022/04/13 04:34:19;;;;;;;4.30;3.90;;;9.60;99.90;;;;;;5138671;27;20628;-84
2022/04/13 04:36:46;;;;;;;4.77;4.00;;;9.40;99.90;;;;;;5144448;27;20941;-83
2022/04/13 04:39:13;;;;;;;6.80;5.10;;;9.50;99.90;;;;;;5138771;27;21167;-83
2022/04/13 04:41:41;;;;;;;6.30;5.53;;;9.60;99.90;;;;;;5138969;27;20625;-83
2022/04/13 04:44:08;;;;;;;5.90;5.30;;;9.10;99.90;;;;;;5145602;27;20657;-83
2022/04/13 04:46:35;;;;;;;4.53;4.17;;;9.50;99.90;;;;;;5138715;27;21047;-84
2022/04/13 04:49:03;;;;;;;5.33;4.50;;;9.30;99.90;;;;;;5140935;27;20625;-83
2022/04/13 04:51:31;;;;;;;5.20;4.73;;;9.20;99.90;;;;;;5140098;27;20676;-83
2022/04/13 04:53:58;;;;;;;5.47;4.20;;;9.00;99.90;;;;;;5143744;27;20720;-83
2022/04/13 04:56:25;;;;;;;4.53;4.13;;;9.10;99.90;;;;;;5137701;27;20621;-83
2022/04/13 04:58:51;;;;;;;4.40;4.00;;;9.40;99.90;;;;;;5143988;27;20614;-83
2022/04/13 05:01:18;;;;;;;5.40;4.73;;;9.00;99.90;;;;;;5143336;27;20663;-83
2022/04/13 05:03:48;;;;;;;5.20;4.33;;;9.00;99.90;;;;;;5146839;27;22753;-84
2022/04/13 05:06:18;;;;;;;5.33;4.83;;;9.30;99.90;;;;;;5140554;27;21226;-83
2022/04/13 05:08:45;;;;;;;9.00;5.83;;;8.90;99.90;;;;;;5144315;27;20649;-84
2022/04/13 05:11:11;;;;;;;8.47;7.53;;;9.10;99.90;;;;;;5143463;27;20632;-84
2022/04/13 05:13:38;;;;;;;7.23;6.63;;;9.40;99.90;;;;;;5141949;27;20617;-85
2022/04/13 05:16:06;;;;;;;8.10;5.00;;;9.40;99.90;;;;;;5143321;27;21167;-84
2022/04/13 05:18:32;;;;;;;5.53;5.07;;;9.50;99.90;;;;;;5142202;27;21212;-84
2022/04/13 05:20:59;;;;;;;6.60;5.00;;;9.60;99.90;;;;;;5140795;27;20615;-85
2022/04/13 05:23:27;;;;;;;5.40;4.50;;;9.00;99.90;;;;;;5137028;27;20629;-84
2022/04/13 05:25:54;;;;;;;6.20;5.30;;;9.40;99.90;;;;;;5145743;27;20613;-84
2022/04/13 05:28:20;;;;;;;5.43;4.93;;;9.40;99.90;;;;;;5135781;27;20621;-84
2022/04/13 05:30:47;;;;;;;4.90;4.47;;;9.50;99.90;;;;;;5143785;27;20624;-84
2022/04/13 05:33:14;;;;;;;5.03;4.63;;;9.40;99.90;;;;;;5142946;27;21025;-84
2022/04/13 05:35:41;;;;;;;5.10;4.70;;;9.60;99.90;;;;;;5139196;27;20649;-84
2022/04/13 05:38:08;;;;;;;7.17;4.50;;;9.80;99.90;;;;;;5137448;27;20621;-85
2022/04/13 05:40:36;;;;;;;5.67;4.43;;;9.30;99.90;;;;;;5136240;27;20625;-84
2022/04/13 05:43:02;;;;;;;6.50;4.83;;;9.70;99.90;;;;;;5141560;27;20617;-85
2022/04/13 05:45:29;;;;;;;10.13;4.57;;;9.40;99.90;;;;;;5135630;27;20642;-85
2022/04/13 05:47:56;;;;;;;5.87;4.77;;;10.00;99.90;;;;;;5141007;27;20817;-84
2022/04/13 05:50:24;;;;;;;5.70;5.20;;;9.80;99.90;;;;;;5139479;27;20995;-84
2022/04/13 05:52:50;;;;;;;6.67;5.20;;;10.20;99.90;;;;;;5140799;27;20661;-84
2022/04/13 05:55:17;;;;;;;5.90;5.10;;;9.90;99.90;;;;;;5140035;27;20609;-85
2022/04/13 05:57:45;;;;;;;5.40;4.90;;;10.00;99.90;;;;;;5146128;27;20707;-85
2022/04/13 06:00:13;;;;;;;6.43;5.50;;;10.50;99.90;;;;;;5141422;27;20648;-85
2022/04/13 06:02:41;;;;;;;6.60;5.53;;;10.60;99.90;;;;;;5141208;27;20690;-85
2022/04/13 06:05:08;;;;;;;7.07;6.40;;;10.70;99.90;;;;;;5137557;27;20621;-84
2022/04/13 06:07:35;;;;;;;9.27;5.70;;;10.80;99.90;;;;;;5138425;27;20643;-85
2022/04/13 06:10:03;;;;;;;11.63;7.43;;;11.00;99.90;;;;;;5134699;27;20656;-85
2022/04/13 06:12:30;;;;;;;7.90;6.60;;;10.90;99.90;;;;;;5133939;27;20660;-85
2022/04/13 06:15:06;;;;;;;7.00;5.87;;;11.10;99.90;;;;;;5134866;27;20640;-85
2022/04/13 06:17:33;;;;;;;6.37;5.67;;;11.30;99.90;;;;;;5138251;27;20635;-84
2022/04/13 06:20:01;;;;;;;6.17;5.53;;;11.10;99.90;;;;;;5133530;27;21250;-84
2022/04/13 06:22:30;;;;;;;7.63;5.20;;;11.40;99.90;;;;;;5136573;27;20638;-84
2022/04/13 06:24:57;;;;;;;7.70;5.37;;;11.60;99.90;;;;;;5137064;27;20965;-84
2022/04/13 06:27:24;;;;;;;9.87;5.43;;;11.80;99.90;;;;;;5142924;27;20617;-84
2022/04/13 06:29:52;;;;;;;11.40;5.30;;;11.80;99.90;;;;;;5134849;27;20658;-84
2022/04/13 06:32:20;;;;;;;5.30;4.80;;;11.60;99.90;;;;;;5136790;27;20653;-83
2022/04/13 06:34:47;;;;;;;5.87;5.23;;;12.10;99.90;;;;;;5137105;27;20628;-84
2022/04/13 06:37:14;;;;;;;6.47;5.30;;;12.20;99.90;;;;;;5131992;27;20610;-83
2022/04/13 06:39:41;;;;;;;7.27;5.93;;;12.30;99.90;;;;;;5137072;27;20662;-83
2022/04/13 06:42:09;;;;;;;7.10;6.47;;;12.20;99.90;;;;;;5139605;27;21176;-83
2022/04/13 06:44:36;;;;;;;6.67;5.70;;;12.30;99.90;;;;;;5133076;27;20729;-81
2022/04/13 06:47:03;;;;;;;8.37;6.13;;;12.40;99.90;;;;;;5142887;27;20980;-84
2022/04/13 06:49:31;;;;;;;6.27;5.77;;;12.50;99.90;;;;;;5137814;27;20633;-86
2022/04/13 06:51:59;;;;;;;6.53;5.83;;;12.70;99.90;;;;;;5140998;27;20625;-87
2022/04/13 06:54:27;;;;;;;6.87;5.47;;;12.80;99.90;;;;;;5140560;27;21147;-85
2022/04/13 06:56:54;;;;;;;8.43;6.83;;;12.90;99.90;;;;;;5139743;27;20648;-86
2022/04/13 06:59:21;;;;;;;6.00;4.67;;;13.10;99.90;;;;;;5141676;27;20646;-85
2022/04/13 07:01:47;;;;;;;5.93;5.43;;;13.20;99.90;;;;;;5146580;27;21079;-87
2022/04/13 07:04:14;;;;;;;5.83;5.30;;;13.30;99.90;;;;;;5139453;27;20621;-84
2022/04/13 07:06:42;;;;;;;7.57;5.17;;;13.40;99.90;;;;;;5139478;27;20807;-84
2022/04/13 07:09:09;;;;;;;5.80;5.27;;;13.60;99.90;;;;;;5140868;27;21232;-86
2022/04/13 07:11:35;;;;;;;8.67;5.93;;;13.70;99.90;;;;;;5144400;27;20613;-87
2022/04/13 07:14:02;;;;;;;11.60;5.33;;;13.90;99.90;;;;;;5141012;27;20658;-86
2022/04/13 07:16:29;;;;;;;6.37;5.67;;;14.00;99.90;;;;;;5138205;27;20630;-87
2022/04/13 07:18:56;;;;;;;7.90;5.50;;;14.10;99.90;;;;;;5130912;27;21029;-86
2022/04/13 07:21:23;;;;;;;6.40;5.67;;;14.20;99.90;;;;;;5137610;27;20629;-87
2022/04/13 07:23:51;;;;;;;5.63;5.13;;;14.40;99.90;;;;;;5143139;27;20987;-86
2022/04/13 07:26:18;;;;;;;7.57;5.70;;;14.50;99.90;;;;;;5141110;27;21193;-86
2022/04/13 07:28:46;;;;;;;5.37;4.43;;;14.50;99.90;;;;;;5138552;27;20665;-84
2022/04/13 07:31:13;;;;;;;6.60;4.27;;;14.70;99.90;;;;;;5138006;27;21049;-85
2022/04/13 07:33:39;;;;;;;6.97;4.63;;;14.80;99.90;;;;;;5140552;27;20664;-85
2022/04/13 07:36:06;;;;;;;6.30;5.20;;;14.80;99.90;;;;;;5137106;27;20609;-85
2022/04/13 07:38:33;;;;;;;7.93;5.40;;;14.90;99.90;;;;;;5132830;27;20668;-85
2022/04/13 07:41:02;;;;;;;7.80;5.43;;;15.00;99.90;;;;;;5134460;27;21197;-85
2022/04/13 07:43:28;;;;;;;5.43;4.40;;;15.10;99.90;;;;;;5136344;27;20708;-85
2022/04/13 07:45:55;;;;;;;4.73;4.23;;;15.20;99.90;;;;;;5140815;27;20610;-86
2022/04/13 07:48:22;;;;;;;6.90;6.30;;;15.30;99.90;;;;;;5144012;27;20625;-87
2022/04/13 07:50:49;;;;;;;5.50;5.00;;;15.40;99.90;;;;;;5137726;27;20685;-87
2022/04/13 07:53:16;;;;;;;7.47;4.70;;;15.50;99.90;;;;;;5138900;27;20645;-85
2022/04/13 07:55:43;;;;;;;5.57;4.33;;;15.60;99.90;;;;;;5139148;27;20630;-84
2022/04/13 07:58:11;;;;;;;6.67;4.20;;;15.80;99.90;;;;;;5140696;27;20644;-85
2022/04/13 08:00:37;;;;;;;7.17;4.00;;;15.90;99.90;;;;;;5138046;27;21179;-85
2022/04/13 08:03:05;;;;;;;6.80;4.63;;;16.00;99.90;;;;;;5144265;27;20623;-86
2022/04/13 08:05:33;;;;;;;5.63;5.20;;;16.00;99.90;;;;;;5140140;27;20657;-84
2022/04/13 08:07:59;;;;;;;7.43;4.60;;;16.20;99.90;;;;;;5136797;27;20657;-84
2022/04/13 08:10:27;;;;;;;4.40;3.90;;;16.30;99.90;;;;;;5130998;27;20661;-84
2022/04/13 08:12:53;;;;;;;5.83;5.20;;;16.50;99.90;;;;;;5138367;27;20766;-84
2022/04/13 08:15:21;;;;;;;6.13;4.30;;;16.60;99.90;;;;;;5134902;27;21168;-84
2022/04/13 08:17:48;;;;;;;4.83;4.13;;;16.70;99.90;;;;;;5137994;27;20633;-85
2022/04/13 08:20:15;;;;;;;4.90;4.47;;;16.80;99.90;;;;;;5138837;27;20645;-85
2022/04/13 08:22:43;;;;;;;9.03;4.03;;;16.90;99.90;;;;;;5131748;27;20626;-85
2022/04/13 08:25:12;;;;;;;5.07;4.60;;;16.90;99.60;;;;;;5136343;27;20618;-85
2022/04/13 08:27:39;;;;;;;5.10;4.70;;;17.00;99.70;;;;;;5135546;27;20625;-85
2022/04/13 08:30:06;;;;;;;5.00;4.50;;;17.10;99.50;;;;;;5139216;27;20678;-85
2022/04/13 08:32:36;;;;;;;4.73;4.37;;;17.20;99.10;;;;;;5139370;27;20633;-85
2022/04/13 08:35:05;;;;;;;4.30;3.70;;;17.40;99.00;;;;;;5137302;27;20622;-85
2022/04/13 08:37:34;;;;;;;4.37;3.90;;;17.50;99.10;;;;;;5139276;27;21126;-85
2022/04/13 08:40:00;;;;;;;5.23;4.73;;;17.60;98.60;;;;;;5134596;27;21019;-85
2022/04/13 08:42:35;;;;;;;5.03;4.20;;;17.60;98.10;;;;;;5141886;27;20637;-85
2022/04/13 08:45:09;;;;;;;7.47;4.10;;;17.70;97.60;;;;;;5133599;27;21070;-85
2022/04/13 08:47:43;;;;;;;6.03;5.43;;;17.80;97.70;;;;;;5133994;27;20632;-85
2022/04/13 08:50:12;;;;;;;9.30;5.40;;;17.90;97.30;;;;;;5138852;27;20651;-84
2022/04/13 08:52:41;;;;;;;5.60;4.40;;;18.10;97.60;;;;;;5135542;27;21010;-86
2022/04/13 08:55:09;;;;;;;11.67;5.30;;;18.20;96.80;;;;;;5138269;27;20635;-85
2022/04/13 08:57:38;;;;;;;6.33;4.53;;;18.30;96.70;;;;;;5132548;27;20639;-85
2022/04/13 09:00:08;;;;;;;8.50;5.40;;;18.50;96.50;;;;;;5136553;27;20657;-86
2022/04/13 09:02:52;;;;;;;5.07;4.57;;;18.50;95.80;;;;;;5137472;27;20649;-85
2022/04/13 09:05:21;;;;;;;3.50;3.20;;;18.60;95.70;;;;;;5136098;27;20606;-86
2022/04/13 09:08:02;;;;;;;4.10;3.80;;;18.70;95.40;;;;;;5136793;27;21005;-86
2022/04/13 09:10:31;;;;;;;4.63;4.27;;;18.80;95.40;;;;;;5132887;27;20669;-84
2022/04/13 09:12:59;;;;;;;4.80;4.23;;;19.00;95.40;;;;;;5132467;27;20661;-84
2022/04/13 09:15:26;;;;;;;4.23;3.57;;;19.10;95.00;;;;;;5136079;27;20999;-84
2022/04/13 09:17:55;;;;;;;5.80;3.80;;;19.30;94.90;;;;;;5135959;27;20637;-84
2022/04/13 09:20:22;;;;;;;6.50;3.83;;;19.50;94.90;;;;;;5131456;27;20665;-84
2022/04/13 09:22:52;;;;;;;7.47;3.73;;;19.70;94.10;;;;;;5134501;27;20693;-85
2022/04/13 09:25:20;;;;;;;4.10;3.00;;;19.80;94.10;;;;;;5131746;27;20637;-85
2022/04/13 09:27:49;;;;;;;6.33;3.20;;;19.90;93.90;;;;;;5137998;27;20669;-85
2022/04/13 09:30:15;;;;;;;7.73;4.30;;;20.20;94.20;;;;;;5134788;27;20645;-85
2022/04/13 09:32:43;;;;;;;6.53;3.57;;;20.30;93.40;;;;;;5137792;27;20967;-85
2022/04/13 09:35:11;;;;;;;6.20;3.47;;;20.50;93.00;;;;;;5132689;27;20639;-85
2022/04/13 09:37:38;;;;;;;3.57;3.27;;;20.70;92.80;;;;;;5133720;27;20621;-85
2022/04/13 09:40:06;;;;;;;5.20;3.80;;;20.80;93.80;;;;;;5132869;27;20653;-85
2022/04/13 09:42:35;;;;;;;3.73;3.43;;;21.00;93.80;;;;;;5139779;27;21503;-85
2022/04/13 09:45:02;;;;;;;5.53;2.87;;;21.20;93.10;;;;;;5137597;27;20618;-85
2022/04/13 09:47:33;;;;;;;5.20;3.87;;;21.30;92.40;;;;;;5132853;27;20640;-85
2022/04/13 09:50:00;;;;;;;9.10;4.40;;;21.40;92.50;;;;;;5136565;27;20645;-85
2022/04/13 09:52:33;;;;;;;5.23;3.57;;;21.50;92.20;;;;;;5133419;27;20632;-85
2022/04/13 09:55:00;;;;;;;4.47;4.07;;;21.60;92.20;;;;;;5133483;27;20661;-85
2022/04/13 09:57:28;;;;;;;5.43;3.07;;;21.60;91.50;;;;;;5132350;27;20666;-85
2022/04/13 09:59:56;;;;;;;6.20;3.67;;;21.60;90.80;;;;;;5135463;27;20650;-85
2022/04/13 10:02:36;;;;;;;5.47;3.40;;;21.60;90.90;;;;;;5137780;27;21049;-84
2022/04/13 10:05:04;;;;;;;8.23;3.13;;;21.70;90.60;;;;;;5131381;27;21024;-85
2022/04/13 10:07:33;;;;;;;5.90;3.60;;;21.70;90.40;;;;;;5137074;27;20628;-86
2022/04/13 10:10:00;;;;;;;7.30;2.80;;;21.70;88.70;;;;;;5128382;27;20647;-85
2022/04/13 10:12:26;;;;;;;4.53;2.60;;;21.80;87.30;;;;;;5130671;27;20990;-85
2022/04/13 10:14:53;;;;;;;8.93;3.33;;;22.00;86.70;;;;;;5136442;27;20665;-85
2022/04/13 10:17:21;;;;;;;4.10;2.40;;;22.10;86.20;;;;;;5134734;27;20652;-85
2022/04/13 10:19:54;;;;;;;3.10;2.37;;;22.30;85.90;;;;;;5142113;27;20682;-85
2022/04/13 10:22:21;;;;;;;4.80;2.47;;;22.50;86.40;;;;;;5129961;27;20674;-86
2022/04/13 10:24:49;;;;;;;6.60;3.10;;;22.80;86.80;;;;;;5129966;27;20627;-86
2022/04/13 10:27:17;;;;;;;4.40;2.50;;;23.10;83.50;;;;;;5137586;27;20625;-85
2022/04/13 10:29:45;;;;;;;3.40;2.20;;;23.30;83.20;;;;;;5134437;27;20653;-85
2022/04/13 10:32:14;;;;;;;9.27;2.30;;;23.60;82.30;;;;;;5133719;27;20992;-84
2022/04/13 10:34:42;;;;;;;2.57;1.90;;;23.70;79.70;;;;;;5131690;27;21016;-85
2022/04/13 10:37:10;;;;;;;4.07;1.73;;;23.90;81.00;;;;;;5138289;27;20622;-86
2022/04/13 10:39:37;;;;;;;3.97;2.30;;;24.10;78.30;;;;;;5131516;27;20661;-86
2022/04/13 10:42:06;;;;;;;3.70;2.57;;;24.40;78.40;;;;;;5133960;27;21190;-86
2022/04/13 10:44:35;;;;;;;3.50;2.30;;;24.40;75.90;;;;;;5138436;27;20629;-85
2022/04/13 10:47:05;;;;;;;4.00;2.20;;;24.50;74.90;;;;;;5136981;27;20621;-85
2022/04/13 10:49:44;;;;;;;7.73;2.30;;;24.60;75.30;;;;;;5134516;27;20657;-85
2022/04/13 10:52:16;;;;;;;4.67;2.17;;;24.70;73.40;;;;;;5133603;27;21628;-86
2022/04/13 10:54:49;;;;;;;6.27;2.07;;;24.70;74.00;;;;;;5132464;27;20649;-85
2022/04/13 10:57:21;;;;;;;6.20;2.07;;;24.90;74.30;;;;;;5137020;27;20615;-85
2022/04/13 10:59:52;;;;;;;7.27;2.70;;;25.10;73.40;;;;;;5134387;27;20654;-86
2022/04/13 11:02:29;;;;;;;5.00;2.40;;;25.20;72.10;;;;;;5133857;27;20660;-85
2022/04/13 11:04:57;;;;;;;7.73;2.40;;;25.10;71.50;;;;;;5136222;27;21205;-85
2022/04/13 11:07:24;;;;;;;4.37;2.30;;;25.10;71.20;;;;;;5129655;27;20630;-86
2022/04/13 11:09:54;;;;;;;3.80;2.10;;;25.20;70.00;;;;;;5132666;27;21515;-86
2022/04/13 11:12:23;;;;;;;4.50;2.00;;;25.30;70.00;;;;;;5134210;27;20621;-85
2022/04/13 11:14:52;;;;;;;3.27;1.70;;;25.50;67.60;;;;;;5132967;27;20658;-85
2022/04/13 11:17:26;;;;;;;2.90;1.97;;;25.60;67.60;;;;;;5138046;27;21213;-86
2022/04/13 11:20:20;;;;;;;5.53;2.30;;;25.60;67.20;;;;;;5143114;27;21053;-86
2022/04/13 11:23:06;;;;;;;3.70;2.10;;;26.00;68.80;;;;;;5139796;27;20620;-85
2022/04/13 11:25:58;;;;;;;4.20;2.10;;;26.40;67.70;;;;;;5139009;27;20618;-85
2022/04/13 11:28:28;;;;;;;6.83;2.97;;;26.60;65.90;;;;;;5133140;27;20653;-86
2022/04/13 11:31:04;;;;;;;3.20;2.17;;;27.00;66.30;;;;;;5140221;27;20629;-84
2022/04/13 11:33:50;;;;;;;6.50;2.63;;;27.20;64.20;;;;;;5131903;27;21110;-84
2022/04/13 11:36:17;;;;;;;5.13;2.30;;;27.20;62.90;;;;;;5136581;27;20686;-84
2022/04/13 11:38:49;;;;;;;3.40;2.23;;;27.00;63.30;;;;;;5136997;27;20667;-84
2022/04/13 11:41:16;;;;;;;5.70;2.33;;;27.20;64.90;;;;;;5141668;27;20617;-84
2022/04/13 11:43:45;;;;;;;3.97;2.17;;;27.30;64.10;;;;;;5143780;27;20622;-85
2022/04/13 11:46:33;;;;;;;4.27;2.60;;;27.50;62.40;;;;;;5142210;27;21132;-85
2022/04/13 11:49:00;;;;;;;7.00;2.50;;;27.60;61.50;;;;;;5147335;27;20652;-85
2022/04/13 11:51:29;;;;;;;3.37;2.23;;;27.90;61.00;;;;;;5143661;27;21197;-86
2022/04/13 11:54:05;;;;;;;5.53;2.10;;;28.10;59.20;;;;;;5137922;27;20642;-85
2022/04/13 11:56:33;;;;;;;5.43;2.10;;;28.20;59.20;;;;;;5139996;27;20625;-86
2022/04/13 11:59:01;;;;;;;4.00;2.90;;;28.60;60.90;;;;;;5138474;27;20693;-86
2022/04/13 12:01:28;;;;;;;3.57;2.43;;;29.00;60.30;;;;;;5142301;27;20630;-85
2022/04/13 12:03:57;;;;;;;4.60;2.30;;;29.30;60.10;;;;;;5140220;27;20626;-85
2022/04/13 12:06:26;;;;;;;6.60;2.90;;;29.70;58.80;;;;;;5141910;27;20628;-85
2022/04/13 12:08:55;;;;;;;3.80;2.20;;;29.90;57.70;;;;;;5135163;27;20748;-85
2022/04/13 12:11:23;;;;;;;6.57;3.03;;;30.30;57.10;;;;;;5139033;27;20624;-86
2022/04/13 12:13:52;;;;;;;6.00;3.20;;;30.40;56.10;;;;;;5132750;27;21129;-86
2022/04/13 12:16:24;;;;;;;6.27;2.90;;;30.50;55.50;;;;;;5141103;27;20624;-85
2022/04/13 12:18:56;;;;;;;5.40;2.27;;;30.50;55.10;;;;;;5136652;27;20706;-85
2022/04/13 12:21:24;;;;;;;6.03;2.80;;;30.60;54.60;;;;;;5137276;27;21198;-86
2022/04/13 12:23:52;;;;;;;14.13;3.23;;;30.80;54.80;;;;;;5137822;27;20729;-85
2022/04/13 12:26:31;;;;;;;4.07;2.73;;;31.10;53.80;;;;;;5139957;27;20721;-85
2022/04/13 12:28:58;;;;;;;5.67;2.33;;;31.20;54.40;;;;;;5136864;27;21428;-84
2022/04/13 12:31:27;;;;;;;6.87;3.40;;;31.20;53.40;;;;;;5133831;27;20641;-85
2022/04/13 12:34:00;;;;;;;5.80;2.73;;;31.30;53.20;;;;;;5138657;27;21336;-85
2022/04/13 12:36:27;;;;;;;4.23;2.73;;;31.10;53.70;;;;;;5140582;27;20661;-85
2022/04/13 12:38:57;;;;;;;6.20;3.40;;;31.50;53.10;;;;;;5134993;27;21470;-85
2022/04/13 12:41:25;;;;;;;4.37;2.37;;;31.70;52.10;;;;;;5140396;27;20656;-85
2022/04/13 12:43:54;;;;;;;3.80;2.10;;;31.40;51.50;;;;;;5139030;27;20654;-85
2022/04/13 12:46:22;;;;;;;5.10;2.33;;;31.50;52.70;;;;;;5135020;27;20621;-85
2022/04/13 12:48:52;;;;;;;10.33;3.00;;;31.80;52.70;;;;;;5137075;27;20649;-86
2022/04/13 12:51:20;;;;;;;4.20;3.00;;;32.20;52.30;;;;;;5140582;27;20941;-85
2022/04/13 12:53:53;;;;;;;6.23;2.90;;;32.40;51.00;;;;;;5138105;27;21285;-85